sensor_id;sensor_type;location;lat;lon;timestamp;pressure;altitude;pressure_sealevel;temperature;humidity
64460;BME280;50828;53.756;21.140;2023-05-23T00:01:28;99922.35;;;15.10;51.73
64460;BME280;50828;53.756;21.140;2023-05-23T00:06:36;99925.92;;;15.13;51.58
64460;BME280;50828;53.756;21.140;2023-05-23T00:11:44;99923.23;;;15.16;51.47
64460;BME280;50828;53.756;21.140;2023-05-23T00:16:52;99918.19;;;15.17;51.60
64460;BME280;50828;53.756;21.140;2023-05-23T00:22:00;99918.71;;;15.20;51.61
64460;BME280;50828;53.756;21.140;2023-05-23T00:27:09;99917.59;;;15.21;51.49
64460;BME280;50828;53.756;21.140;2023-05-23T00:32:17;99921.48;;;15.21;51.56
64460;BME280;50828;53.756;21.140;2023-05-23T00:37:25;99925.23;;;15.21;51.55
64460;BME280;50828;53.756;21.140;2023-05-23T00:42:33;99923.38;;;15.20;51.78
64460;BME280;50828;53.756;21.140;2023-05-23T00:47:42;99926.61;;;15.16;52.29
64460;BME280;50828;53.756;21.140;2023-05-23T00:52:51;99922.56;;;15.13;52.57
64460;BME280;50828;53.756;21.140;2023-05-23T00:57:59;99920.86;;;15.09;52.80
64460;BME280;50828;53.756;21.140;2023-05-23T01:03:08;99924.37;;;15.04;52.90
64460;BME280;50828;53.756;21.140;2023-05-23T01:08:24;99924.77;;;15.00;53.20
64460;BME280;50828;53.756;21.140;2023-05-23T01:13:37;99920.83;;;14.95;53.09
64460;BME280;50828;53.756;21.140;2023-05-23T01:18:50;99917.68;;;14.89;53.31
64460;BME280;50828;53.756;21.140;2023-05-23T01:24:15;99917.65;;;14.86;53.26
64460;BME280;50828;53.756;21.140;2023-05-23T01:29:29;99916.23;;;14.80;53.49
64460;BME280;50828;53.756;21.140;2023-05-23T01:34:39;99915.27;;;14.75;53.72
64460;BME280;50828;53.756;21.140;2023-05-23T01:39:48;99915.59;;;14.73;53.93
64460;BME280;50828;53.756;21.140;2023-05-23T01:44:57;99908.96;;;14.68;53.92
64460;BME280;50828;53.756;21.140;2023-05-23T01:50:11;99905.57;;;14.63;53.86
64460;BME280;50828;53.756;21.140;2023-05-23T01:55:21;99903.35;;;14.58;54.01
64460;BME280;50828;53.756;21.140;2023-05-23T02:00:29;99904.08;;;14.52;54.35
64460;BME280;50828;53.756;21.140;2023-05-23T02:05:37;99897.02;;;14.45;54.64
64460;BME280;50828;53.756;21.140;2023-05-23T02:10:45;99895.90;;;14.40;54.53
64460;BME280;50828;53.756;21.140;2023-05-23T02:15:53;99892.91;;;14.34;54.56
64460;BME280;50828;53.756;21.140;2023-05-23T02:21:01;99885.82;;;14.28;54.59
64460;BME280;50828;53.756;21.140;2023-05-23T02:26:10;99878.92;;;14.25;55.10
64460;BME280;50828;53.756;21.140;2023-05-23T02:31:20;99877.41;;;14.20;55.04
64460;BME280;50828;53.756;21.140;2023-05-23T02:36:28;99877.20;;;14.18;55.41
64460;BME280;50828;53.756;21.140;2023-05-23T02:41:38;99874.27;;;14.14;55.55
64460;BME280;50828;53.756;21.140;2023-05-23T02:46:46;99873.98;;;14.09;55.70
64460;BME280;50828;53.756;21.140;2023-05-23T02:51:56;99869.14;;;14.04;55.82
64460;BME280;50828;53.756;21.140;2023-05-23T02:57:04;99869.09;;;13.99;55.50
64460;BME280;50828;53.756;21.140;2023-05-23T03:02:13;99875.75;;;13.94;56.05
64460;BME280;50828;53.756;21.140;2023-05-23T03:07:21;99875.53;;;13.89;56.30
64460;BME280;50828;53.756;21.140;2023-05-23T03:12:31;99873.63;;;13.82;56.51
64460;BME280;50828;53.756;21.140;2023-05-23T03:17:41;99872.94;;;13.78;56.52
64460;BME280;50828;53.756;21.140;2023-05-23T03:22:49;99870.30;;;13.72;56.50
64460;BME280;50828;53.756;21.140;2023-05-23T03:27:57;99871.58;;;13.68;57.06
64460;BME280;50828;53.756;21.140;2023-05-23T03:33:06;99872.32;;;13.64;57.04
64460;BME280;50828;53.756;21.140;2023-05-23T03:38:15;99876.91;;;13.61;57.23
64460;BME280;50828;53.756;21.140;2023-05-23T03:43:23;99878.45;;;13.62;56.87
64460;BME280;50828;53.756;21.140;2023-05-23T03:48:32;99876.73;;;13.65;57.57
64460;BME280;50828;53.756;21.140;2023-05-23T03:53:40;99867.16;;;13.65;57.71
64460;BME280;50828;53.756;21.140;2023-05-23T03:58:49;99874.99;;;13.70;57.85
64460;BME280;50828;53.756;21.140;2023-05-23T04:03:58;99869.97;;;13.74;58.17
64460;BME280;50828;53.756;21.140;2023-05-23T04:09:10;99867.63;;;13.79;58.29
64460;BME280;50828;53.756;21.140;2023-05-23T04:14:21;99865.78;;;13.89;58.17
64460;BME280;50828;53.756;21.140;2023-05-23T04:19:34;99865.73;;;13.99;57.95
64460;BME280;50828;53.756;21.140;2023-05-23T04:24:44;99863.36;;;14.09;58.37
64460;BME280;50828;53.756;21.140;2023-05-23T04:29:53;99861.95;;;14.18;58.13
64460;BME280;50828;53.756;21.140;2023-05-23T04:35:03;99864.75;;;14.28;58.13
64460;BME280;50828;53.756;21.140;2023-05-23T04:40:15;99854.05;;;14.32;58.15
64460;BME280;50828;53.756;21.140;2023-05-23T04:45:55;99872.14;;;14.49;58.42
64460;BME280;50828;53.756;21.140;2023-05-23T04:51:16;99873.58;;;14.61;58.39
64460;BME280;50828;53.756;21.140;2023-05-23T04:56:34;99871.63;;;14.73;58.29
64460;BME280;50828;53.756;21.140;2023-05-23T05:01:42;99870.85;;;14.83;58.03
64460;BME280;50828;53.756;21.140;2023-05-23T05:06:52;99872.80;;;14.95;57.68
64460;BME280;50828;53.756;21.140;2023-05-23T05:12:00;99868.26;;;15.05;57.40
64460;BME280;50828;53.756;21.140;2023-05-23T05:17:09;99868.61;;;15.13;57.62
64460;BME280;50828;53.756;21.140;2023-05-23T05:22:34;99864.87;;;15.22;57.15
64460;BME280;50828;53.756;21.140;2023-05-23T05:27:42;99854.79;;;15.30;56.94
64460;BME280;50828;53.756;21.140;2023-05-23T05:32:54;99852.10;;;15.38;56.89
64460;BME280;50828;53.756;21.140;2023-05-23T05:38:03;99846.30;;;15.49;57.17
64460;BME280;50828;53.756;21.140;2023-05-23T05:43:11;99848.50;;;15.65;57.20
64460;BME280;50828;53.756;21.140;2023-05-23T05:48:21;99847.90;;;15.79;56.79
64460;BME280;50828;53.756;21.140;2023-05-23T05:53:31;99848.64;;;15.92;56.95
64460;BME280;50828;53.756;21.140;2023-05-23T05:58:40;99853.60;;;16.06;56.78
64460;BME280;50828;53.756;21.140;2023-05-23T06:03:51;99846.92;;;16.18;56.75
64460;BME280;50828;53.756;21.140;2023-05-23T06:08:59;99845.11;;;16.29;56.27
64460;BME280;50828;53.756;21.140;2023-05-23T06:14:08;99839.65;;;16.39;55.96
64460;BME280;50828;53.756;21.140;2023-05-23T06:19:19;99839.03;;;16.48;55.89
64460;BME280;50828;53.756;21.140;2023-05-23T06:24:27;99833.98;;;16.54;55.75
64460;BME280;50828;53.756;21.140;2023-05-23T06:29:35;99830.03;;;16.62;55.48
64460;BME280;50828;53.756;21.140;2023-05-23T06:34:43;99822.71;;;16.70;55.50
64460;BME280;50828;53.756;21.140;2023-05-23T06:39:51;99818.08;;;16.81;55.67
64460;BME280;50828;53.756;21.140;2023-05-23T06:45:00;99814.08;;;16.92;55.72
64460;BME280;50828;53.756;21.140;2023-05-23T06:50:11;99810.89;;;17.07;55.41
64460;BME280;50828;53.756;21.140;2023-05-23T06:55:19;99804.40;;;17.23;55.52
64460;BME280;50828;53.756;21.140;2023-05-23T07:00:28;99803.12;;;17.41;55.35
64460;BME280;50828;53.756;21.140;2023-05-23T07:05:42;99798.25;;;17.58;54.90
64460;BME280;50828;53.756;21.140;2023-05-23T07:10:52;99790.76;;;17.75;54.74
64460;BME280;50828;53.756;21.140;2023-05-23T07:16:21;99789.91;;;17.96;54.56
64460;BME280;50828;53.756;21.140;2023-05-23T07:21:54;99786.31;;;18.18;54.16
64460;BME280;50828;53.756;21.140;2023-05-23T07:27:04;99782.27;;;18.40;53.76
64460;BME280;50828;53.756;21.140;2023-05-23T07:32:14;99779.52;;;18.64;53.53
64460;BME280;50828;53.756;21.140;2023-05-23T07:37:24;99774.13;;;18.90;53.07
64460;BME280;50828;53.756;21.140;2023-05-23T07:42:32;99764.92;;;19.17;52.68
64460;BME280;50828;53.756;21.140;2023-05-23T07:47:41;99761.77;;;19.52;52.10
64460;BME280;50828;53.756;21.140;2023-05-23T07:52:50;99757.89;;;19.92;51.28
64460;BME280;50828;53.756;21.140;2023-05-23T07:58:02;99751.41;;;20.28;50.06
64460;BME280;50828;53.756;21.140;2023-05-23T08:03:10;99750.84;;;20.57;49.14
64460;BME280;50828;53.756;21.140;2023-05-23T08:08:27;99743.02;;;20.81;48.24
64460;BME280;50828;53.756;21.140;2023-05-23T08:13:36;99741.23;;;21.01;47.46
64460;BME280;50828;53.756;21.140;2023-05-23T08:19:02;99736.66;;;21.20;46.91
64460;BME280;50828;53.756;21.140;2023-05-23T08:24:10;99737.63;;;21.40;46.45
64460;BME280;50828;53.756;21.140;2023-05-23T08:29:20;99738.07;;;21.59;45.37
64460;BME280;50828;53.756;21.140;2023-05-23T08:34:28;99737.86;;;21.74;44.05
64460;BME280;50828;53.756;21.140;2023-05-23T08:39:37;99736.90;;;21.83;43.48
64460;BME280;50828;53.756;21.140;2023-05-23T08:45:11;99732.65;;;21.88;42.81
64460;BME280;50828;53.756;21.140;2023-05-23T08:50:19;99731.26;;;21.90;42.31
64460;BME280;50828;53.756;21.140;2023-05-23T08:55:28;99728.71;;;21.88;41.86
64460;BME280;50828;53.756;21.140;2023-05-23T09:00:37;99726.84;;;21.85;41.70
64460;BME280;50828;53.756;21.140;2023-05-23T09:05:47;99719.86;;;21.81;41.50
64460;BME280;50828;53.756;21.140;2023-05-23T09:10:56;99720.98;;;21.80;41.44
64460;BME280;50828;53.756;21.140;2023-05-23T09:16:05;99717.48;;;21.79;41.49
64460;BME280;50828;53.756;21.140;2023-05-23T09:21:18;99720.15;;;21.82;41.11
64460;BME280;50828;53.756;21.140;2023-05-23T09:26:32;99717.39;;;21.88;40.66
64460;BME280;50828;53.756;21.140;2023-05-23T09:31:40;99720.91;;;21.97;40.33
64460;BME280;50828;53.756;21.140;2023-05-23T09:36:49;99716.80;;;22.00;40.08
64460;BME280;50828;53.756;21.140;2023-05-23T09:41:59;99715.95;;;22.02;40.02
64460;BME280;50828;53.756;21.140;2023-05-23T09:47:09;99712.46;;;22.05;40.13
64460;BME280;50828;53.756;21.140;2023-05-23T09:52:17;99705.20;;;22.09;39.56
64460;BME280;50828;53.756;21.140;2023-05-23T09:57:26;99710.23;;;22.15;39.33
64460;BME280;50828;53.756;21.140;2023-05-23T10:08:10;99701.52;;;22.37;38.61
64460;BME280;50828;53.756;21.140;2023-05-23T10:13:19;99699.66;;;22.49;38.45
64460;BME280;50828;53.756;21.140;2023-05-23T10:18:30;99699.61;;;22.64;37.84
64460;BME280;50828;53.756;21.140;2023-05-23T10:23:42;99698.52;;;22.71;37.76
64460;BME280;50828;53.756;21.140;2023-05-23T10:28:51;99692.41;;;22.76;37.86
64460;BME280;50828;53.756;21.140;2023-05-23T10:34:10;99694.66;;;22.78;37.94
64460;BME280;50828;53.756;21.140;2023-05-23T10:39:30;99687.55;;;22.81;37.53
64460;BME280;50828;53.756;21.140;2023-05-23T10:44:41;99685.48;;;22.82;36.90
64460;BME280;50828;53.756;21.140;2023-05-23T10:49:53;99686.09;;;22.83;36.82
64460;BME280;50828;53.756;21.140;2023-05-23T10:55:02;99677.30;;;22.83;36.66
64460;BME280;50828;53.756;21.140;2023-05-23T11:00:20;99679.48;;;22.85;36.35
64460;BME280;50828;53.756;21.140;2023-05-23T11:05:30;99677.38;;;22.86;36.20
64460;BME280;50828;53.756;21.140;2023-05-23T11:10:57;99676.95;;;22.87;36.19
64460;BME280;50828;53.756;21.140;2023-05-23T11:16:25;99675.20;;;22.86;35.63
64460;BME280;50828;53.756;21.140;2023-05-23T11:21:34;99676.93;;;22.85;35.56
64460;BME280;50828;53.756;21.140;2023-05-23T11:26:53;99674.73;;;22.84;35.59
64460;BME280;50828;53.756;21.140;2023-05-23T11:32:11;99666.34;;;22.83;35.36
64460;BME280;50828;53.756;21.140;2023-05-23T11:37:22;99661.01;;;22.85;35.38
64460;BME280;50828;53.756;21.140;2023-05-23T11:42:32;99662.59;;;22.87;35.25
64460;BME280;50828;53.756;21.140;2023-05-23T11:47:43;99664.02;;;22.89;35.04
64460;BME280;50828;53.756;21.140;2023-05-23T11:52:53;99661.63;;;22.89;35.10
64460;BME280;50828;53.756;21.140;2023-05-23T11:58:01;99656.41;;;22.89;34.70
64460;BME280;50828;53.756;21.140;2023-05-23T12:03:09;99646.82;;;22.92;34.79
64460;BME280;50828;53.756;21.140;2023-05-23T12:08:20;99641.88;;;22.97;34.87
64460;BME280;50828;53.756;21.140;2023-05-23T12:13:31;99643.39;;;23.03;34.42
64460;BME280;50828;53.756;21.140;2023-05-23T12:18:40;99640.86;;;23.07;34.30
64460;BME280;50828;53.756;21.140;2023-05-23T12:23:49;99637.30;;;23.12;34.16
64460;BME280;50828;53.756;21.140;2023-05-23T12:28:57;99635.58;;;23.13;33.71
64460;BME280;50828;53.756;21.140;2023-05-23T12:34:06;99632.18;;;23.11;33.39
64460;BME280;50828;53.756;21.140;2023-05-23T12:39:14;99629.14;;;23.11;33.04
64460;BME280;50828;53.756;21.140;2023-05-23T12:44:22;99624.94;;;23.08;32.77
64460;BME280;50828;53.756;21.140;2023-05-23T12:49:31;99624.72;;;23.07;32.72
64460;BME280;50828;53.756;21.140;2023-05-23T12:54:39;99619.33;;;23.05;32.58
64460;BME280;50828;53.756;21.140;2023-05-23T12:59:47;99615.69;;;23.03;32.60
64460;BME280;50828;53.756;21.140;2023-05-23T13:04:55;99612.80;;;23.04;32.71
64460;BME280;50828;53.756;21.140;2023-05-23T13:10:03;99607.55;;;23.06;32.91
64460;BME280;50828;53.756;21.140;2023-05-23T13:15:13;99607.03;;;23.11;32.85
64460;BME280;50828;53.756;21.140;2023-05-23T13:20:20;99603.86;;;23.16;33.10
64460;BME280;50828;53.756;21.140;2023-05-23T13:25:28;99603.84;;;23.20;32.68
64460;BME280;50828;53.756;21.140;2023-05-23T13:30:36;99601.52;;;23.21;32.35
64460;BME280;50828;53.756;21.140;2023-05-23T13:35:48;99603.31;;;23.21;32.08
64460;BME280;50828;53.756;21.140;2023-05-23T13:40:58;99603.68;;;23.20;32.27
64460;BME280;50828;53.756;21.140;2023-05-23T13:46:06;99601.64;;;23.19;32.25
64460;BME280;50828;53.756;21.140;2023-05-23T13:51:15;99593.27;;;23.14;32.08
64460;BME280;50828;53.756;21.140;2023-05-23T13:56:23;99596.20;;;23.12;32.22
64460;BME280;50828;53.756;21.140;2023-05-23T14:01:32;99598.02;;;23.10;32.35
64460;BME280;50828;53.756;21.140;2023-05-23T14:06:40;99590.61;;;23.08;32.91
64460;BME280;50828;53.756;21.140;2023-05-23T14:11:48;99589.73;;;23.08;33.24
64460;BME280;50828;53.756;21.140;2023-05-23T14:16:58;99591.90;;;23.10;33.52
64460;BME280;50828;53.756;21.140;2023-05-23T14:22:06;99592.78;;;23.14;33.59
64460;BME280;50828;53.756;21.140;2023-05-23T14:27:14;99592.14;;;23.18;33.70
64460;BME280;50828;53.756;21.140;2023-05-23T14:32:24;99590.16;;;23.24;33.42
64460;BME280;50828;53.756;21.140;2023-05-23T14:37:32;99588.02;;;23.29;33.08
64460;BME280;50828;53.756;21.140;2023-05-23T14:42:40;99585.99;;;23.33;32.78
64460;BME280;50828;53.756;21.140;2023-05-23T14:47:49;99586.38;;;23.36;32.68
64460;BME280;50828;53.756;21.140;2023-05-23T14:52:58;99580.70;;;23.39;32.58
64460;BME280;50828;53.756;21.140;2023-05-23T14:58:06;99580.15;;;23.46;32.32
64460;BME280;50828;53.756;21.140;2023-05-23T15:03:14;99577.82;;;23.50;32.12
64460;BME280;50828;53.756;21.140;2023-05-23T15:08:23;99578.08;;;23.57;32.27
64460;BME280;50828;53.756;21.140;2023-05-23T15:13:30;99574.98;;;23.63;32.10
64460;BME280;50828;53.756;21.140;2023-05-23T15:18:38;99571.77;;;23.69;32.02
64460;BME280;50828;53.756;21.140;2023-05-23T15:23:47;99568.99;;;23.73;32.08
64460;BME280;50828;53.756;21.140;2023-05-23T15:28:55;99568.05;;;23.76;31.98
64460;BME280;50828;53.756;21.140;2023-05-23T15:34:04;99562.80;;;23.80;31.89
64460;BME280;50828;53.756;21.140;2023-05-23T15:39:13;99559.22;;;23.80;31.56
64460;BME280;50828;53.756;21.140;2023-05-23T15:44:21;99563.29;;;23.81;31.18
64460;BME280;50828;53.756;21.140;2023-05-23T15:49:30;99560.80;;;23.77;30.90
64460;BME280;50828;53.756;21.140;2023-05-23T15:54:38;99558.93;;;23.69;30.68
64460;BME280;50828;53.756;21.140;2023-05-23T15:59:46;99551.77;;;23.60;30.56
64460;BME280;50828;53.756;21.140;2023-05-23T16:04:54;99546.08;;;23.49;30.71
64460;BME280;50828;53.756;21.140;2023-05-23T16:10:04;99548.38;;;23.40;30.94
64460;BME280;50828;53.756;21.140;2023-05-23T16:15:12;99544.91;;;23.30;31.18
64460;BME280;50828;53.756;21.140;2023-05-23T16:20:21;99546.39;;;23.25;31.43
64460;BME280;50828;53.756;21.140;2023-05-23T16:25:30;99543.61;;;23.17;31.59
64460;BME280;50828;53.756;21.140;2023-05-23T16:30:38;99542.70;;;23.14;31.78
64460;BME280;50828;53.756;21.140;2023-05-23T16:35:46;99536.98;;;23.08;31.90
64460;BME280;50828;53.756;21.140;2023-05-23T16:40:54;99536.78;;;23.04;32.10
64460;BME280;50828;53.756;21.140;2023-05-23T16:46:02;99538.51;;;23.00;32.32
64460;BME280;50828;53.756;21.140;2023-05-23T16:51:10;99540.85;;;22.96;32.19
64460;BME280;50828;53.756;21.140;2023-05-23T16:56:18;99538.79;;;22.91;32.48
64460;BME280;50828;53.756;21.140;2023-05-23T17:01:27;99544.81;;;22.87;32.40
64460;BME280;50828;53.756;21.140;2023-05-23T17:06:36;99543.86;;;22.82;32.58
64460;BME280;50828;53.756;21.140;2023-05-23T17:11:45;99547.47;;;22.77;32.72
64460;BME280;50828;53.756;21.140;2023-05-23T17:16:54;99552.06;;;22.70;32.88
64460;BME280;50828;53.756;21.140;2023-05-23T17:22:04;99552.09;;;22.63;33.17
64460;BME280;50828;53.756;21.140;2023-05-23T17:27:13;99550.88;;;22.55;33.31
64460;BME280;50828;53.756;21.140;2023-05-23T17:32:22;99546.88;;;22.46;33.92
64460;BME280;50828;53.756;21.140;2023-05-23T17:37:29;99541.68;;;22.39;34.87
64460;BME280;50828;53.756;21.140;2023-05-23T17:42:39;99542.77;;;22.30;36.05
64460;BME280;50828;53.756;21.140;2023-05-23T17:47:47;99547.31;;;22.18;36.98
64460;BME280;50828;53.756;21.140;2023-05-23T17:52:55;99545.67;;;22.03;37.43
64460;BME280;50828;53.756;21.140;2023-05-23T17:58:02;99551.11;;;21.86;38.20
64460;BME280;50828;53.756;21.140;2023-05-23T18:03:10;99560.82;;;21.71;38.12
64460;BME280;50828;53.756;21.140;2023-05-23T18:08:17;99560.67;;;21.51;38.75
64460;BME280;50828;53.756;21.140;2023-05-23T18:13:25;99566.29;;;21.29;38.96
64460;BME280;50828;53.756;21.140;2023-05-23T18:18:32;99564.77;;;21.03;39.26
64460;BME280;50828;53.756;21.140;2023-05-23T18:23:40;99567.35;;;20.77;39.51
64460;BME280;50828;53.756;21.140;2023-05-23T18:28:47;99567.59;;;20.50;39.74
64460;BME280;50828;53.756;21.140;2023-05-23T18:33:55;99577.39;;;20.22;40.24
64460;BME280;50828;53.756;21.140;2023-05-23T18:39:03;99587.68;;;19.95;40.75
64460;BME280;50828;53.756;21.140;2023-05-23T18:44:10;99591.77;;;19.68;41.28
64460;BME280;50828;53.756;21.140;2023-05-23T18:49:18;99598.86;;;19.42;41.70
64460;BME280;50828;53.756;21.140;2023-05-23T18:54:25;99604.92;;;19.16;42.23
64460;BME280;50828;53.756;21.140;2023-05-23T18:59:33;99605.63;;;18.93;42.73
64460;BME280;50828;53.756;21.140;2023-05-23T19:04:41;99607.83;;;18.70;43.37
64460;BME280;50828;53.756;21.140;2023-05-23T19:09:49;99608.55;;;18.48;43.77
64460;BME280;50828;53.756;21.140;2023-05-23T19:14:56;99614.46;;;18.28;44.23
64460;BME280;50828;53.756;21.140;2023-05-23T19:20:06;99616.86;;;18.09;44.73
64460;BME280;50828;53.756;21.140;2023-05-23T19:25:15;99622.36;;;17.93;45.20
64460;BME280;50828;53.756;21.140;2023-05-23T19:30:22;99621.61;;;17.77;45.47
64460;BME280;50828;53.756;21.140;2023-05-23T19:35:30;99623.70;;;17.64;46.05
64460;BME280;50828;53.756;21.140;2023-05-23T19:40:39;99627.71;;;17.51;46.53
64460;BME280;50828;53.756;21.140;2023-05-23T19:45:47;99626.62;;;17.40;46.92
64460;BME280;50828;53.756;21.140;2023-05-23T19:50:55;99631.63;;;17.30;47.17
64460;BME280;50828;53.756;21.140;2023-05-23T19:56:03;99632.85;;;17.19;47.57
64460;BME280;50828;53.756;21.140;2023-05-23T20:01:12;99625.40;;;17.07;47.88
64460;BME280;50828;53.756;21.140;2023-05-23T20:06:20;99628.52;;;16.98;48.21
64460;BME280;50828;53.756;21.140;2023-05-23T20:11:29;99625.05;;;16.87;48.33
64460;BME280;50828;53.756;21.140;2023-05-23T20:16:37;99629.71;;;16.79;48.58
64460;BME280;50828;53.756;21.140;2023-05-23T20:21:45;99627.81;;;16.71;48.79
64460;BME280;50828;53.756;21.140;2023-05-23T20:26:53;99635.41;;;16.64;48.87
64460;BME280;50828;53.756;21.140;2023-05-23T20:32:02;99637.77;;;16.59;49.15
64460;BME280;50828;53.756;21.140;2023-05-23T20:37:10;99643.73;;;16.52;49.26
64460;BME280;50828;53.756;21.140;2023-05-23T20:42:19;99649.79;;;16.47;49.32
64460;BME280;50828;53.756;21.140;2023-05-23T20:47:27;99650.54;;;16.39;49.13
64460;BME280;50828;53.756;21.140;2023-05-23T20:52:35;99656.23;;;16.32;49.15
64460;BME280;50828;53.756;21.140;2023-05-23T20:57:44;99657.41;;;16.20;49.09
64460;BME280;50828;53.756;21.140;2023-05-23T21:02:51;99654.96;;;16.07;49.05
64460;BME280;50828;53.756;21.140;2023-05-23T21:07:59;99663.14;;;15.99;49.15
64460;BME280;50828;53.756;21.140;2023-05-23T21:13:06;99663.30;;;15.87;49.32
64460;BME280;50828;53.756;21.140;2023-05-23T21:18:14;99666.27;;;15.74;49.50
64460;BME280;50828;53.756;21.140;2023-05-23T21:23:22;99666.19;;;15.62;49.89
64460;BME280;50828;53.756;21.140;2023-05-23T21:28:30;99665.05;;;15.50;50.24
64460;BME280;50828;53.756;21.140;2023-05-23T21:33:38;99665.01;;;15.40;50.62
64460;BME280;50828;53.756;21.140;2023-05-23T21:38:45;99664.93;;;15.31;51.01
64460;BME280;50828;53.756;21.140;2023-05-23T21:43:53;99668.02;;;15.24;51.18
64460;BME280;50828;53.756;21.140;2023-05-23T21:49:02;99671.67;;;15.17;51.38
64460;BME280;50828;53.756;21.140;2023-05-23T21:54:11;99675.32;;;15.11;51.65
64460;BME280;50828;53.756;21.140;2023-05-23T21:59:19;99679.09;;;15.04;51.62
64460;BME280;50828;53.756;21.140;2023-05-23T22:04:28;99676.30;;;14.98;51.99
64460;BME280;50828;53.756;21.140;2023-05-23T22:09:38;99675.08;;;14.92;52.10
64460;BME280;50828;53.756;21.140;2023-05-23T22:14:46;99670.15;;;14.86;52.20
64460;BME280;50828;53.756;21.140;2023-05-23T22:19:54;99673.50;;;14.81;52.44
64460;BME280;50828;53.756;21.140;2023-05-23T22:25:03;99668.17;;;14.76;52.42
64460;BME280;50828;53.756;21.140;2023-05-23T22:30:12;99667.21;;;14.71;52.74
64460;BME280;50828;53.756;21.140;2023-05-23T22:35:21;99666.50;;;14.66;52.92
64460;BME280;50828;53.756;21.140;2023-05-23T22:40:30;99664.91;;;14.60;53.22
64460;BME280;50828;53.756;21.140;2023-05-23T22:45:38;99667.80;;;14.56;53.20
64460;BME280;50828;53.756;21.140;2023-05-23T22:50:47;99665.39;;;14.52;53.31
64460;BME280;50828;53.756;21.140;2023-05-23T22:56:00;99662.41;;;14.49;53.46
64460;BME280;50828;53.756;21.140;2023-05-23T23:01:08;99663.45;;;14.46;53.54
64460;BME280;50828;53.756;21.140;2023-05-23T23:06:16;99659.89;;;14.44;53.83
64460;BME280;50828;53.756;21.140;2023-05-23T23:11:26;99657.45;;;14.43;54.10
64460;BME280;50828;53.756;21.140;2023-05-23T23:16:34;99652.98;;;14.41;54.29
64460;BME280;50828;53.756;21.140;2023-05-23T23:21:43;99656.31;;;14.39;54.31
64460;BME280;50828;53.756;21.140;2023-05-23T23:26:50;99661.69;;;14.38;54.43
64460;BME280;50828;53.756;21.140;2023-05-23T23:31:58;99659.34;;;14.36;54.69
64460;BME280;50828;53.756;21.140;2023-05-23T23:37:07;99664.02;;;14.34;54.70
64460;BME280;50828;53.756;21.140;2023-05-23T23:42:14;99667.17;;;14.35;54.90
64460;BME280;50828;53.756;21.140;2023-05-23T23:47:23;99667.75;;;14.34;55.03
64460;BME280;50828;53.756;21.140;2023-05-23T23:52:31;99668.09;;;14.35;55.42
64460;BME280;50828;53.756;21.140;2023-05-23T23:57:39;99668.57;;;14.36;55.37
